Capao Bonito, Brazil
Current Conditions -  °F | °C
As of 1:00 PM on Friday 24 Oct 2014 (Local Time) from SBKP Reporting Station
Scattered Clouds Scattered Clouds  
Wind Chill: 86°   Ceiling: Unl
Heat Index: 86°   Visibility: 6mi
Dew Point: 61°   Wind: 9mph
Humidity: 43%   Direction: 50°NE
Pressure: 30.03"   Gusts: NA
Location:  24.03°S, 48.35°W
Report Text: SBKP 241500Z 05008KT 9999 SCT040 30/16 Q1017
Loading
Personal Weather Stations






























Interactive Weather Map
Tropical Storm Tracking
New forecast layout! Learn more

10-Day Weather Forecast

Advertisements
Track Severe Weather on mobile